createdAt,value
2023-04-29T00:01:21.827Z,16.42
2023-04-29T00:03:49.713Z,18.00
2023-04-29T00:06:18.417Z,17.67
2023-04-29T00:08:46.275Z,18.85
2023-04-29T00:11:13.106Z,18.70
2023-04-29T00:13:41.272Z,19.70
2023-04-29T00:16:11.786Z,17.88
2023-04-29T00:18:38.710Z,18.13
2023-04-29T00:21:06.177Z,18.58
2023-04-29T00:23:34.226Z,17.80
2023-04-29T00:26:01.680Z,18.23
2023-04-29T00:28:28.626Z,19.15
2023-04-29T00:30:56.277Z,19.30
2023-04-29T00:33:24.049Z,19.95
2023-04-29T00:35:51.324Z,21.42
2023-04-29T00:38:18.251Z,19.92
2023-04-29T00:40:45.772Z,21.55
2023-04-29T00:43:13.268Z,20.85
2023-04-29T00:45:40.479Z,21.27
2023-04-29T00:48:07.907Z,20.40
2023-04-29T00:50:35.177Z,20.02
2023-04-29T00:53:02.250Z,22.38
2023-04-29T00:55:29.857Z,20.55
2023-04-29T00:57:57.725Z,19.02
2023-04-29T01:00:26.240Z,18.58
2023-04-29T01:02:57.199Z,17.65
2023-04-29T01:05:24.579Z,15.48
2023-04-29T01:08:06.942Z,15.23
2023-04-29T01:10:49.028Z,13.93
2023-04-29T01:13:30.706Z,14.27
2023-04-29T01:16:07.560Z,14.73
2023-04-29T01:18:41.359Z,13.25
2023-04-29T01:21:09.076Z,13.57
2023-04-29T01:23:36.269Z,13.73
2023-04-29T01:26:03.438Z,12.40
2023-04-29T01:29:11.267Z,11.77
2023-04-29T01:31:45.198Z,13.05
2023-04-29T01:35:00.003Z,13.93
2023-04-29T01:37:42.467Z,13.20
2023-04-29T01:40:15.449Z,12.63
2023-04-29T01:43:01.840Z,14.75
2023-04-29T01:45:31.509Z,13.38
2023-04-29T01:47:59.358Z,14.13
2023-04-29T01:50:27.230Z,13.80
2023-04-29T01:52:56.675Z,14.98
2023-04-29T01:55:23.719Z,14.07
2023-04-29T01:57:59.833Z,14.95
2023-04-29T02:00:49.793Z,15.50
2023-04-29T02:03:17.915Z,14.50
2023-04-29T02:08:15.036Z,14.20
2023-04-29T02:10:59.231Z,14.80
2023-04-29T02:13:38.464Z,14.77
2023-04-29T02:16:13.480Z,15.60
2023-04-29T02:18:57.141Z,15.48
2023-04-29T02:21:24.882Z,15.25
2023-04-29T02:23:54.492Z,16.15
2023-04-29T02:26:24.032Z,15.57
2023-04-29T02:28:52.986Z,15.57
2023-04-29T02:33:49.370Z,14.90
2023-04-29T02:36:17.713Z,15.43
2023-04-29T02:38:44.886Z,16.73
2023-04-29T02:41:19.174Z,16.37
2023-04-29T02:43:49.095Z,15.70
2023-04-29T02:46:16.853Z,14.70
2023-04-29T02:48:43.697Z,15.65
2023-04-29T02:51:10.779Z,16.20
2023-04-29T02:53:37.659Z,15.80
2023-04-29T02:56:05.354Z,14.90
2023-04-29T02:58:32.292Z,16.33
2023-04-29T03:00:59.140Z,16.63
2023-04-29T03:03:26.276Z,16.65
2023-04-29T03:05:53.297Z,15.52
2023-04-29T03:08:20.234Z,15.50
2023-04-29T03:10:47.103Z,15.27
2023-04-29T03:13:14.041Z,15.90
2023-04-29T03:15:41.285Z,15.88
2023-04-29T03:18:09.776Z,15.75
2023-04-29T03:20:37.069Z,15.60
2023-04-29T03:23:07.990Z,16.90
2023-04-29T03:25:35.335Z,14.73
2023-04-29T03:28:02.336Z,16.45
2023-04-29T03:30:31.109Z,15.45
2023-04-29T03:32:58.738Z,16.40
2023-04-29T03:35:27.179Z,14.50
2023-04-29T03:38:17.239Z,15.75
2023-04-29T03:40:45.617Z,15.70
2023-04-29T03:43:14.063Z,15.48
2023-04-29T03:45:41.564Z,12.60
2023-04-29T03:48:08.702Z,12.35
2023-04-29T03:50:37.073Z,12.30
2023-04-29T03:53:04.091Z,12.57
2023-04-29T03:55:31.285Z,12.57
2023-04-29T03:57:58.164Z,12.15
2023-04-29T04:00:26.648Z,12.75
2023-04-29T04:02:56.091Z,11.63
2023-04-29T04:05:25.237Z,12.45
2023-04-29T04:07:56.706Z,12.70
2023-04-29T04:10:28.306Z,12.82
2023-04-29T04:12:56.574Z,12.70
2023-04-29T04:15:23.796Z,12.13
2023-04-29T04:17:51.130Z,12.50
2023-04-29T04:20:18.586Z,11.82
2023-04-29T04:22:48.006Z,10.93
2023-04-29T04:25:25.521Z,12.63
2023-04-29T04:28:00.339Z,12.13
2023-04-29T04:30:46.975Z,12.15
2023-04-29T04:33:14.307Z,12.18
2023-04-29T04:35:44.035Z,13.43
2023-04-29T04:38:14.494Z,12.65
2023-04-29T04:40:42.424Z,12.40
2023-04-29T04:43:26.322Z,12.75
2023-04-29T04:45:53.806Z,12.23
2023-04-29T04:48:21.473Z,12.48
2023-04-29T04:50:50.902Z,11.48
2023-04-29T04:53:17.830Z,11.50
2023-04-29T04:55:51.893Z,11.88
2023-04-29T04:58:18.820Z,12.32
2023-04-29T05:00:46.264Z,11.52
2023-04-29T05:03:13.847Z,11.20
2023-04-29T05:05:40.764Z,12.02
2023-04-29T05:08:08.185Z,11.20
2023-04-29T05:10:40.336Z,11.15
2023-04-29T05:13:07.940Z,11.02
2023-04-29T05:15:35.808Z,10.88
2023-04-29T05:18:04.099Z,12.52
2023-04-29T05:20:31.620Z,12.82
2023-04-29T05:23:00.998Z,12.83
2023-04-29T05:25:30.569Z,11.95
2023-04-29T05:27:58.000Z,11.48
2023-04-29T05:30:27.106Z,13.98
2023-04-29T05:32:54.364Z,12.75
2023-04-29T05:35:22.197Z,12.73
2023-04-29T05:37:49.474Z,12.88
2023-04-29T05:40:35.050Z,13.20
2023-04-29T05:43:20.894Z,13.57
2023-04-29T05:45:48.113Z,13.45
2023-04-29T05:48:15.212Z,13.60
2023-04-29T05:50:42.299Z,13.73
2023-04-29T05:53:09.517Z,14.57
2023-04-29T05:55:36.807Z,15.10
2023-04-29T05:58:03.665Z,13.93
2023-04-29T06:00:31.745Z,13.55
2023-04-29T06:03:06.973Z,13.75
2023-04-29T06:05:34.601Z,14.02
2023-04-29T06:08:20.838Z,12.48
2023-04-29T06:10:53.171Z,13.52
2023-04-29T06:13:20.554Z,12.20
2023-04-29T06:15:48.064Z,13.13
2023-04-29T06:18:16.022Z,11.77
2023-04-29T06:20:43.096Z,11.43
2023-04-29T06:23:10.585Z,11.93
2023-04-29T06:25:37.612Z,11.00
2023-04-29T06:28:08.898Z,11.10
2023-04-29T06:30:37.163Z,10.65
2023-04-29T06:33:04.431Z,11.25
2023-04-29T06:35:31.497Z,10.10
2023-04-29T06:37:58.395Z,9.95
2023-04-29T06:40:43.866Z,9.90
2023-04-29T06:43:30.935Z,11.73
2023-04-29T06:46:16.391Z,10.73
2023-04-29T06:48:58.106Z,11.15
2023-04-29T06:51:25.138Z,10.40
2023-04-29T06:53:51.961Z,10.23
2023-04-29T06:56:21.019Z,10.60
2023-04-29T06:58:48.121Z,11.05
2023-04-29T07:01:15.057Z,9.30
2023-04-29T07:03:44.010Z,9.07
2023-04-29T07:06:12.668Z,10.55
2023-04-29T07:08:39.578Z,8.98
2023-04-29T07:11:06.615Z,8.52
2023-04-29T07:13:33.894Z,9.43
2023-04-29T07:16:00.840Z,9.00
2023-04-29T07:18:28.695Z,10.13
2023-04-29T07:21:01.666Z,8.70
2023-04-29T07:23:29.225Z,9.55
2023-04-29T07:25:56.046Z,9.27
2023-04-29T07:28:22.974Z,8.73
2023-04-29T07:30:53.035Z,9.35
2023-04-29T07:33:20.037Z,9.55
2023-04-29T07:35:47.183Z,9.57
2023-04-29T07:38:14.602Z,8.60
2023-04-29T07:40:42.438Z,7.70
2023-04-29T07:43:09.473Z,8.57
2023-04-29T07:45:36.728Z,9.57
2023-04-29T07:48:03.940Z,9.63
2023-04-29T07:50:32.475Z,10.77
2023-04-29T07:53:00.533Z,11.95
2023-04-29T07:55:27.896Z,11.02
2023-04-29T07:57:57.526Z,13.20
2023-04-29T08:00:27.931Z,11.90
2023-04-29T08:02:56.085Z,13.20
2023-04-29T08:05:24.695Z,13.60
2023-04-29T08:07:52.641Z,14.63
2023-04-29T08:10:23.175Z,14.93
2023-04-29T08:12:50.189Z,15.15
2023-04-29T08:15:18.549Z,14.40
2023-04-29T08:17:45.789Z,17.40
2023-04-29T08:20:13.021Z,16.92
2023-04-29T08:22:39.876Z,17.30
2023-04-29T08:25:07.367Z,16.45
2023-04-29T08:27:34.286Z,18.90
2023-04-29T08:30:01.556Z,18.98
2023-04-29T08:32:28.482Z,19.05
2023-04-29T08:34:56.397Z,18.30
2023-04-29T08:37:23.445Z,19.45
2023-04-29T08:39:50.242Z,19.52
2023-04-29T08:42:21.084Z,19.48
2023-04-29T08:44:49.404Z,19.38
2023-04-29T08:47:17.098Z,19.75
2023-04-29T08:49:44.241Z,17.75
2023-04-29T08:52:11.678Z,20.23
2023-04-29T08:54:38.739Z,18.85
2023-04-29T08:57:06.548Z,20.42
2023-04-29T08:59:33.566Z,20.50
2023-04-29T09:02:01.048Z,19.67
2023-04-29T09:05:08.994Z,21.02
2023-04-29T09:07:36.891Z,21.48
2023-04-29T09:10:05.419Z,20.20
2023-04-29T09:12:32.386Z,18.90
2023-04-29T09:15:00.047Z,21.00
2023-04-29T09:17:49.364Z,19.92
2023-04-29T09:20:22.238Z,22.27
2023-04-29T09:23:16.239Z,22.85
2023-04-29T09:25:57.698Z,19.27
2023-04-29T09:28:24.901Z,19.10
2023-04-29T09:30:51.818Z,19.58
2023-04-29T09:33:19.186Z,18.02
2023-04-29T09:35:47.138Z,20.20
2023-04-29T09:38:16.491Z,17.52
2023-04-29T09:40:58.144Z,18.17
2023-04-29T09:43:26.346Z,19.08
2023-04-29T09:45:53.858Z,19.67
2023-04-29T09:48:20.860Z,20.02
2023-04-29T09:51:02.218Z,19.15
2023-04-29T09:53:31.732Z,19.98
2023-04-29T09:56:03.603Z,19.85
2023-04-29T09:58:33.889Z,20.15
2023-04-29T10:01:02.440Z,19.83
2023-04-29T10:03:37.447Z,18.40
2023-04-29T10:06:06.166Z,17.95
2023-04-29T10:08:34.294Z,18.65
2023-04-29T10:11:03.362Z,17.98
2023-04-29T10:13:31.253Z,16.95
2023-04-29T10:16:08.227Z,15.98
2023-04-29T10:18:39.952Z,17.00
2023-04-29T10:21:09.600Z,14.32
2023-04-29T10:23:37.813Z,14.18
2023-04-29T10:26:07.172Z,14.63
2023-04-29T10:28:35.349Z,14.63
2023-04-29T10:31:06.755Z,12.35
2023-04-29T10:33:35.704Z,11.65
2023-04-29T10:36:03.777Z,9.70
2023-04-29T10:38:41.772Z,9.82
2023-04-29T10:41:21.541Z,10.57
2023-04-29T10:46:26.921Z,8.57
2023-04-29T10:49:00.886Z,9.45
2023-04-29T10:51:31.614Z,9.52
2023-04-29T10:54:03.520Z,9.70
2023-04-29T10:57:03.573Z,9.52
2023-04-29T10:59:33.384Z,9.15
2023-04-29T11:02:00.596Z,9.00
2023-04-29T11:04:27.910Z,9.68
2023-04-29T11:06:59.292Z,8.55
2023-04-29T11:09:27.995Z,9.07
2023-04-29T11:12:06.072Z,10.57
2023-04-29T11:14:41.949Z,10.63
2023-04-29T11:17:15.327Z,9.43
2023-04-29T11:19:45.442Z,9.60
2023-04-29T11:22:30.632Z,10.13
2023-04-29T11:25:03.258Z,9.80
2023-04-29T11:27:38.697Z,9.30
2023-04-29T11:30:07.586Z,9.25
2023-04-29T11:32:37.106Z,9.02
2023-04-29T11:35:12.115Z,8.60
2023-04-29T11:37:40.443Z,7.75
2023-04-29T11:40:08.920Z,8.65
2023-04-29T11:42:40.754Z,7.68
2023-04-29T11:45:08.186Z,9.02
2023-04-29T11:47:35.523Z,8.52
2023-04-29T11:50:07.846Z,8.88
2023-04-29T11:52:37.257Z,9.10
2023-04-29T11:55:05.156Z,9.13
2023-04-29T11:57:32.164Z,8.57
2023-04-29T11:59:59.394Z,7.90
2023-04-29T12:02:33.741Z,8.70
2023-04-29T12:05:06.089Z,7.93
2023-04-29T12:07:33.112Z,8.25
2023-04-29T12:10:00.445Z,7.07
2023-04-29T12:12:28.444Z,7.00
2023-04-29T12:14:56.070Z,6.43
2023-04-29T12:17:24.535Z,7.55
2023-04-29T12:19:52.034Z,6.53
2023-04-29T12:22:20.306Z,6.05
2023-04-29T12:24:47.637Z,5.55
2023-04-29T12:27:14.584Z,6.22
2023-04-29T12:29:41.513Z,6.30
2023-04-29T12:32:12.806Z,5.78
2023-04-29T12:34:40.305Z,5.90
2023-04-29T12:37:07.213Z,4.90
2023-04-29T12:39:34.788Z,6.00
2023-04-29T12:42:03.036Z,6.13
2023-04-29T12:44:38.983Z,5.90
2023-04-29T12:47:10.913Z,6.30
2023-04-29T12:49:38.526Z,6.45
2023-04-29T12:52:06.308Z,6.22
2023-04-29T12:54:33.595Z,5.95
2023-04-29T12:57:00.805Z,5.55
2023-04-29T12:59:27.649Z,6.20
2023-04-29T13:01:55.062Z,6.63
2023-04-29T13:04:22.108Z,7.00
2023-04-29T13:06:49.482Z,6.70
2023-04-29T13:09:18.870Z,7.15
2023-04-29T13:11:46.784Z,6.15
2023-04-29T13:14:13.689Z,7.20
2023-04-29T13:16:41.101Z,7.28
2023-04-29T13:19:25.660Z,6.82
2023-04-29T13:21:54.935Z,7.18
2023-04-29T13:24:21.823Z,7.47
2023-04-29T13:26:51.806Z,7.13
2023-04-29T13:29:19.481Z,7.25
2023-04-29T13:31:46.495Z,7.97
2023-04-29T13:34:13.553Z,7.28
2023-04-29T13:36:40.598Z,6.90
2023-04-29T13:39:07.463Z,7.22
2023-04-29T13:41:35.433Z,7.22
2023-04-29T13:44:04.933Z,7.70
2023-04-29T13:46:34.205Z,7.32
2023-04-29T13:49:31.050Z,8.32
2023-04-29T13:59:38.118Z,7.00
2023-04-29T14:02:24.291Z,6.70
2023-04-29T14:04:53.215Z,6.53
2023-04-29T14:07:20.946Z,7.57
2023-04-29T14:09:49.322Z,7.43
2023-04-29T14:12:16.307Z,8.02
2023-04-29T14:14:43.288Z,7.63
2023-04-29T14:17:10.195Z,8.43
2023-04-29T14:19:37.234Z,7.53
2023-04-29T14:22:04.138Z,6.97
2023-04-29T14:24:31.200Z,7.18
2023-04-29T14:26:58.153Z,7.82
2023-04-29T14:29:25.180Z,7.45
2023-04-29T14:31:52.236Z,7.38
2023-04-29T14:34:19.855Z,8.10
2023-04-29T14:36:46.969Z,8.10
2023-04-29T14:39:14.041Z,7.32
2023-04-29T14:41:41.021Z,7.38
2023-04-29T14:44:07.844Z,7.38
2023-04-29T14:46:35.013Z,6.90
2023-04-29T14:49:02.194Z,7.50
2023-04-29T14:51:29.637Z,8.13
2023-04-29T14:53:56.740Z,7.50
2023-04-29T14:56:23.650Z,8.98
2023-04-29T14:58:50.499Z,7.75
2023-04-29T15:01:17.516Z,8.73
2023-04-29T15:03:45.206Z,8.80
2023-04-29T15:06:13.121Z,9.30
2023-04-29T15:08:40.084Z,8.98
2023-04-29T15:11:07.389Z,8.07
2023-04-29T15:13:34.293Z,8.55
2023-04-29T15:16:01.299Z,8.60
2023-04-29T15:18:28.317Z,8.88
2023-04-29T15:20:55.443Z,7.82
2023-04-29T15:23:22.340Z,7.93
2023-04-29T15:25:49.211Z,7.80
2023-04-29T15:28:16.231Z,8.25
2023-04-29T15:30:43.216Z,8.32
2023-04-29T15:33:10.593Z,9.30
2023-04-29T15:35:38.126Z,8.38
2023-04-29T15:38:05.101Z,9.95
2023-04-29T15:40:32.196Z,8.88
2023-04-29T15:42:59.441Z,9.70
2023-04-29T15:45:27.392Z,10.23
2023-04-29T15:47:54.395Z,10.82
2023-04-29T15:50:22.267Z,11.00
2023-04-29T15:52:52.479Z,11.90
2023-04-29T15:55:19.363Z,12.50
2023-04-29T15:57:46.219Z,11.60
2023-04-29T16:00:13.550Z,12.80
2023-04-29T16:02:41.062Z,12.85
2023-04-29T16:05:08.459Z,12.25
2023-04-29T16:07:36.251Z,11.98
2023-04-29T16:10:03.929Z,12.20
2023-04-29T16:12:31.516Z,12.35
2023-04-29T16:14:58.560Z,11.68
2023-04-29T16:17:25.763Z,11.60
2023-04-29T16:19:52.904Z,9.88
2023-04-29T16:22:19.953Z,10.70
2023-04-29T16:24:49.353Z,12.00
2023-04-29T16:27:17.497Z,12.07
2023-04-29T16:29:44.506Z,11.63
2023-04-29T16:32:11.545Z,11.45
2023-04-29T16:34:38.919Z,12.18
2023-04-29T16:37:12.336Z,10.80
2023-04-29T16:39:40.479Z,11.60
2023-04-29T16:42:07.646Z,11.38
2023-04-29T16:44:34.674Z,10.50
2023-04-29T16:47:02.672Z,10.00
2023-04-29T16:49:31.303Z,10.65
2023-04-29T16:51:58.647Z,10.70
2023-04-29T16:54:26.392Z,10.57
2023-04-29T16:56:53.364Z,10.25
2023-04-29T16:59:21.192Z,9.07
2023-04-29T17:01:48.212Z,10.20
2023-04-29T17:04:15.299Z,9.35
2023-04-29T17:06:43.066Z,10.43
2023-04-29T17:09:10.432Z,8.73
2023-04-29T17:11:37.401Z,9.27
2023-04-29T17:14:04.441Z,8.13
2023-04-29T17:16:31.337Z,8.00
2023-04-29T17:18:58.559Z,7.70
2023-04-29T17:21:26.091Z,7.85
2023-04-29T17:23:53.586Z,7.75
2023-04-29T17:26:21.290Z,7.72
2023-04-29T17:28:48.713Z,7.78
2023-04-29T17:31:16.318Z,8.00
2023-04-29T17:33:54.750Z,7.43
2023-04-29T17:36:24.437Z,7.40
2023-04-29T17:38:51.357Z,8.02
2023-04-29T17:41:18.350Z,7.63
2023-04-29T17:43:45.245Z,6.95
2023-04-29T17:46:12.057Z,6.95
2023-04-29T17:48:39.364Z,7.35
2023-04-29T17:51:06.535Z,6.90
2023-04-29T17:53:34.054Z,6.72
2023-04-29T17:56:01.075Z,7.15
2023-04-29T17:58:29.171Z,7.05
2023-04-29T18:00:56.763Z,5.90
2023-04-29T18:03:26.711Z,6.82
2023-04-29T18:05:54.159Z,7.13
2023-04-29T18:08:21.209Z,7.45
2023-04-29T18:10:48.524Z,8.35
2023-04-29T18:13:15.398Z,8.15
2023-04-29T18:15:42.750Z,8.68
2023-04-29T18:18:09.691Z,7.82
2023-04-29T18:20:36.637Z,8.93
2023-04-29T18:23:03.513Z,8.35
2023-04-29T18:25:30.889Z,8.43
2023-04-29T18:28:07.533Z,7.88
2023-04-29T18:30:47.601Z,9.38
2023-04-29T18:33:15.766Z,8.18
2023-04-29T18:35:43.481Z,8.93
2023-04-29T18:38:14.706Z,8.65
2023-04-29T18:40:41.798Z,8.93
2023-04-29T18:43:09.963Z,8.27
2023-04-29T18:45:36.901Z,8.90
2023-04-29T18:48:06.741Z,9.40
2023-04-29T18:50:34.123Z,8.32
2023-04-29T18:53:01.260Z,8.43
2023-04-29T18:55:28.177Z,8.60
2023-04-29T18:57:55.108Z,8.48
2023-04-29T19:00:22.029Z,8.52
2023-04-29T19:02:49.317Z,9.90
2023-04-29T19:05:16.710Z,9.25
2023-04-29T19:07:43.846Z,8.75
2023-04-29T19:10:11.257Z,8.85
2023-04-29T19:12:38.076Z,9.27
2023-04-29T19:15:05.514Z,10.20
2023-04-29T19:17:32.441Z,10.00
2023-04-29T19:19:59.380Z,8.93
2023-04-29T19:22:29.622Z,8.73
2023-04-29T19:24:56.505Z,8.98
2023-04-29T19:27:23.952Z,9.55
2023-04-29T19:29:51.410Z,9.38
2023-04-29T19:32:20.268Z,10.15
2023-04-29T19:34:47.182Z,10.52
2023-04-29T19:37:14.750Z,10.25
2023-04-29T19:39:41.643Z,9.95
2023-04-29T19:42:08.567Z,11.00
2023-04-29T19:44:35.866Z,10.45
2023-04-29T19:47:03.670Z,9.70
2023-04-29T19:49:31.039Z,9.60
2023-04-29T19:51:57.997Z,9.35
2023-04-29T19:54:24.976Z,9.07
2023-04-29T19:56:52.054Z,9.00
2023-04-29T19:59:19.095Z,9.43
2023-04-29T20:01:46.001Z,10.75
2023-04-29T20:04:12.983Z,13.57
2023-04-29T20:06:40.182Z,15.25
2023-04-29T20:09:09.369Z,13.73
2023-04-29T20:11:36.653Z,11.27
2023-04-29T20:14:03.746Z,12.13
2023-04-29T20:16:32.209Z,12.57
2023-04-29T20:18:59.203Z,14.10
2023-04-29T20:21:26.274Z,12.73
2023-04-29T20:23:53.526Z,12.20
2023-04-29T20:26:21.026Z,11.82
2023-04-29T20:28:47.949Z,12.50
2023-04-29T20:31:15.955Z,13.20
2023-04-29T20:33:42.962Z,12.43
2023-04-29T20:36:10.422Z,11.95
2023-04-29T20:38:37.712Z,13.70
2023-04-29T20:41:05.991Z,13.77
2023-04-29T20:43:32.855Z,13.20
2023-04-29T20:46:00.636Z,13.73
2023-04-29T20:48:28.366Z,14.10
2023-04-29T20:50:56.372Z,14.55
2023-04-29T20:53:25.735Z,13.85
2023-04-29T20:55:52.669Z,12.75
2023-04-29T20:58:19.569Z,13.20
2023-04-29T21:00:46.491Z,12.63
2023-04-29T21:03:13.439Z,12.93
2023-04-29T21:05:40.341Z,12.80
2023-04-29T21:08:07.280Z,13.13
2023-04-29T21:10:34.217Z,13.60
2023-04-29T21:13:01.255Z,13.25
2023-04-29T21:15:29.540Z,13.43
2023-04-29T21:17:56.853Z,10.80
2023-04-29T21:20:23.912Z,12.95
2023-04-29T21:22:50.811Z,11.95
2023-04-29T21:25:17.782Z,10.98
2023-04-29T21:27:44.772Z,10.27
2023-04-29T21:30:12.037Z,12.05
2023-04-29T21:32:39.070Z,11.55
2023-04-29T21:35:06.430Z,9.25
2023-04-29T21:37:34.018Z,8.48
2023-04-29T21:40:00.964Z,7.63
2023-04-29T21:42:28.230Z,8.60
2023-04-29T21:44:57.316Z,8.35
2023-04-29T21:47:24.678Z,8.15
2023-04-29T21:49:53.245Z,7.70
2023-04-29T21:52:20.610Z,8.45
2023-04-29T21:54:47.477Z,8.18
2023-04-29T21:57:14.296Z,9.02
2023-04-29T21:59:41.845Z,10.30
2023-04-29T22:02:21.822Z,8.70
2023-04-29T22:04:52.682Z,8.82
2023-04-29T22:07:21.046Z,9.73
2023-04-29T22:09:51.160Z,9.65
2023-04-29T22:12:19.307Z,9.48
2023-04-29T22:14:46.588Z,9.23
2023-04-29T22:17:14.314Z,9.77
2023-04-29T22:19:41.237Z,9.88
2023-04-29T22:22:08.859Z,11.43
2023-04-29T22:24:36.072Z,11.27
2023-04-29T22:27:03.531Z,10.38
2023-04-29T22:29:30.347Z,10.40
2023-04-29T22:31:57.244Z,10.65
2023-04-29T22:34:24.127Z,10.73
2023-04-29T22:36:51.362Z,10.73
2023-04-29T22:39:18.697Z,9.45
2023-04-29T22:41:45.711Z,9.98
2023-04-29T22:44:12.657Z,9.40
2023-04-29T22:46:39.589Z,8.20
2023-04-29T22:49:06.478Z,7.53
2023-04-29T22:51:33.306Z,7.57
2023-04-29T22:54:00.562Z,7.90
2023-04-29T22:56:28.842Z,8.15
2023-04-29T22:58:56.317Z,8.65
2023-04-29T23:01:23.218Z,8.82
2023-04-29T23:03:50.601Z,10.23
2023-04-29T23:06:17.452Z,10.32
2023-04-29T23:08:44.672Z,9.77
2023-04-29T23:11:11.986Z,10.60
2023-04-29T23:13:39.269Z,9.50
2023-04-29T23:16:07.529Z,9.18
2023-04-29T23:18:36.158Z,9.13
2023-04-29T23:21:03.650Z,8.43
2023-04-29T23:23:30.565Z,8.73
2023-04-29T23:25:57.485Z,8.68
2023-04-29T23:28:24.868Z,8.20
2023-04-29T23:30:51.951Z,7.85
2023-04-29T23:33:18.778Z,7.63
2023-04-29T23:35:50.432Z,7.25
2023-04-29T23:38:19.248Z,7.05
2023-04-29T23:40:47.040Z,7.03
2023-04-29T23:43:17.248Z,7.28
2023-04-29T23:45:45.851Z,6.45
2023-04-29T23:48:13.261Z,7.28
2023-04-29T23:50:40.072Z,6.25
2023-04-29T23:53:07.011Z,6.55
2023-04-29T23:55:34.507Z,6.13
2023-04-29T23:58:01.876Z,7.50
